sensor_id;sensor_type;location;lat;lon;timestamp;temperature;humidity
53272;DHT22;39160;48.580;7.756;2024-01-11T00:03:13;0.00;99.90
53272;DHT22;39160;48.580;7.756;2024-01-11T00:08:04;0.00;99.90
53272;DHT22;39160;48.580;7.756;2024-01-11T00:12:55;0.10;99.90
53272;DHT22;39160;48.580;7.756;2024-01-11T00:17:45;0.00;99.90
53272;DHT22;39160;48.580;7.756;2024-01-11T00:22:36;0.00;99.90
53272;DHT22;39160;48.580;7.756;2024-01-11T00:27:27;-0.10;99.90
53272;DHT22;39160;48.580;7.756;2024-01-11T00:32:17;-0.10;99.90
53272;DHT22;39160;48.580;7.756;2024-01-11T00:37:08;-0.10;99.90
53272;DHT22;39160;48.580;7.756;2024-01-11T00:41:59;-0.20;99.90
53272;DHT22;39160;48.580;7.756;2024-01-11T00:46:49;-0.10;99.90
53272;DHT22;39160;48.580;7.756;2024-01-11T00:51:40;-0.20;99.90
53272;DHT22;39160;48.580;7.756;2024-01-11T00:56:31;-0.20;99.90
53272;DHT22;39160;48.580;7.756;2024-01-11T01:01:21;-0.30;99.90
53272;DHT22;39160;48.580;7.756;2024-01-11T01:06:12;-0.20;99.90
53272;DHT22;39160;48.580;7.756;2024-01-11T01:11:03;-0.20;99.90
53272;DHT22;39160;48.580;7.756;2024-01-11T01:15:54;-0.20;99.90
53272;DHT22;39160;48.580;7.756;2024-01-11T01:20:45;-0.20;99.90
53272;DHT22;39160;48.580;7.756;2024-01-11T01:25:35;-0.20;99.90
53272;DHT22;39160;48.580;7.756;2024-01-11T01:30:29;-0.20;99.90
53272;DHT22;39160;48.580;7.756;2024-01-11T01:35:20;-0.30;99.90
53272;DHT22;39160;48.580;7.756;2024-01-11T01:40:12;-0.30;99.90
53272;DHT22;39160;48.580;7.756;2024-01-11T01:45:03;-0.30;99.90
53272;DHT22;39160;48.580;7.756;2024-01-11T01:49:54;-0.40;99.90
53272;DHT22;39160;48.580;7.756;2024-01-11T01:54:46;-0.40;99.90
53272;DHT22;39160;48.580;7.756;2024-01-11T01:59:38;-0.40;99.90
53272;DHT22;39160;48.580;7.756;2024-01-11T02:04:29;-0.30;99.90
53272;DHT22;39160;48.580;7.756;2024-01-11T02:09:20;-0.40;99.90
53272;DHT22;39160;48.580;7.756;2024-01-11T02:14:11;-0.40;99.90
53272;DHT22;39160;48.580;7.756;2024-01-11T02:19:01;-0.40;99.90
53272;DHT22;39160;48.580;7.756;2024-01-11T02:24:19;-0.40;99.90
53272;DHT22;39160;48.580;7.756;2024-01-11T02:29:10;-0.40;99.90
53272;DHT22;39160;48.580;7.756;2024-01-11T02:34:00;-0.40;99.90
53272;DHT22;39160;48.580;7.756;2024-01-11T02:38:51;-0.40;99.90
53272;DHT22;39160;48.580;7.756;2024-01-11T02:43:49;-0.50;99.90
53272;DHT22;39160;48.580;7.756;2024-01-11T02:48:40;-0.40;99.90
53272;DHT22;39160;48.580;7.756;2024-01-11T02:53:30;-0.50;99.90
53272;DHT22;39160;48.580;7.756;2024-01-11T02:58:24;-0.40;99.90
53272;DHT22;39160;48.580;7.756;2024-01-11T03:03:15;-0.50;99.90
53272;DHT22;39160;48.580;7.756;2024-01-11T03:08:06;-0.50;99.90
53272;DHT22;39160;48.580;7.756;2024-01-11T03:12:57;-0.50;99.90
53272;DHT22;39160;48.580;7.756;2024-01-11T03:17:48;-0.30;99.90
53272;DHT22;39160;48.580;7.756;2024-01-11T03:22:45;-0.40;99.90
53272;DHT22;39160;48.580;7.756;2024-01-11T03:27:37;-0.40;99.90
53272;DHT22;39160;48.580;7.756;2024-01-11T03:32:27;-0.40;99.90
53272;DHT22;39160;48.580;7.756;2024-01-11T03:37:18;-0.50;99.90
53272;DHT22;39160;48.580;7.756;2024-01-11T03:42:09;-0.60;99.90
53272;DHT22;39160;48.580;7.756;2024-01-11T03:46:59;-0.50;99.90
53272;DHT22;39160;48.580;7.756;2024-01-11T03:51:50;-0.50;99.90
53272;DHT22;39160;48.580;7.756;2024-01-11T03:56:40;-0.60;99.90
53272;DHT22;39160;48.580;7.756;2024-01-11T04:01:31;-0.60;99.90
53272;DHT22;39160;48.580;7.756;2024-01-11T04:06:23;-0.60;99.90
53272;DHT22;39160;48.580;7.756;2024-01-11T04:11:14;-0.60;99.90
53272;DHT22;39160;48.580;7.756;2024-01-11T04:16:05;-0.60;99.90
53272;DHT22;39160;48.580;7.756;2024-01-11T04:20:56;-0.60;99.90
53272;DHT22;39160;48.580;7.756;2024-01-11T04:25:47;-0.70;99.90
53272;DHT22;39160;48.580;7.756;2024-01-11T04:30:38;-0.70;99.90
53272;DHT22;39160;48.580;7.756;2024-01-11T04:35:28;-0.70;99.90
53272;DHT22;39160;48.580;7.756;2024-01-11T04:40:19;-0.70;99.90
53272;DHT22;39160;48.580;7.756;2024-01-11T04:45:10;-0.70;99.90
53272;DHT22;39160;48.580;7.756;2024-01-11T04:50:00;-0.70;99.90
53272;DHT22;39160;48.580;7.756;2024-01-11T04:54:51;-0.70;99.90
53272;DHT22;39160;48.580;7.756;2024-01-11T04:59:42;-0.70;99.90
53272;DHT22;39160;48.580;7.756;2024-01-11T05:04:32;-0.70;99.90
53272;DHT22;39160;48.580;7.756;2024-01-11T05:09:23;-0.70;99.90
53272;DHT22;39160;48.580;7.756;2024-01-11T05:14:13;-0.70;99.90
53272;DHT22;39160;48.580;7.756;2024-01-11T05:19:04;-0.80;99.90
53272;DHT22;39160;48.580;7.756;2024-01-11T05:23:55;-0.70;99.90
53272;DHT22;39160;48.580;7.756;2024-01-11T05:28:45;-0.70;99.90
53272;DHT22;39160;48.580;7.756;2024-01-11T05:33:36;-0.80;99.90
53272;DHT22;39160;48.580;7.756;2024-01-11T05:38:27;-0.80;99.90
53272;DHT22;39160;48.580;7.756;2024-01-11T05:43:17;-0.80;99.90
53272;DHT22;39160;48.580;7.756;2024-01-11T05:48:10;-0.80;99.90
53272;DHT22;39160;48.580;7.756;2024-01-11T05:53:01;-0.70;99.90
53272;DHT22;39160;48.580;7.756;2024-01-11T05:57:52;-0.80;99.90
53272;DHT22;39160;48.580;7.756;2024-01-11T06:02:42;-0.90;99.90
53272;DHT22;39160;48.580;7.756;2024-01-11T06:07:33;-1.00;99.90
53272;DHT22;39160;48.580;7.756;2024-01-11T06:12:24;-0.90;99.90
53272;DHT22;39160;48.580;7.756;2024-01-11T06:17:14;-0.90;99.90
53272;DHT22;39160;48.580;7.756;2024-01-11T06:22:05;-0.90;99.90
53272;DHT22;39160;48.580;7.756;2024-01-11T06:26:55;-0.80;99.90
53272;DHT22;39160;48.580;7.756;2024-01-11T06:31:46;-0.90;99.90
53272;DHT22;39160;48.580;7.756;2024-01-11T06:36:37;-1.00;99.90
53272;DHT22;39160;48.580;7.756;2024-01-11T06:41:27;-1.00;99.90
53272;DHT22;39160;48.580;7.756;2024-01-11T06:46:21;-1.10;99.90
53272;DHT22;39160;48.580;7.756;2024-01-11T06:51:20;-1.10;99.90
53272;DHT22;39160;48.580;7.756;2024-01-11T06:56:18;-1.10;99.90
53272;DHT22;39160;48.580;7.756;2024-01-11T07:01:10;-1.10;99.90
53272;DHT22;39160;48.580;7.756;2024-01-11T07:06:01;-1.00;99.90
53272;DHT22;39160;48.580;7.756;2024-01-11T07:10:53;-1.10;99.90
53272;DHT22;39160;48.580;7.756;2024-01-11T07:15:43;-1.10;99.90
53272;DHT22;39160;48.580;7.756;2024-01-11T07:20:34;-1.10;99.90
53272;DHT22;39160;48.580;7.756;2024-01-11T07:25:25;-1.10;99.90
53272;DHT22;39160;48.580;7.756;2024-01-11T07:30:15;-1.00;99.90
53272;DHT22;39160;48.580;7.756;2024-01-11T07:35:06;-1.10;99.90
53272;DHT22;39160;48.580;7.756;2024-01-11T07:39:57;-1.10;99.90
53272;DHT22;39160;48.580;7.756;2024-01-11T07:44:48;-1.10;99.90
53272;DHT22;39160;48.580;7.756;2024-01-11T07:49:39;-1.10;99.90
53272;DHT22;39160;48.580;7.756;2024-01-11T07:54:29;-1.00;99.90
53272;DHT22;39160;48.580;7.756;2024-01-11T07:59:21;-1.00;99.90
53272;DHT22;39160;48.580;7.756;2024-01-11T08:04:12;-1.00;99.90
53272;DHT22;39160;48.580;7.756;2024-01-11T08:09:02;-1.00;99.90
53272;DHT22;39160;48.580;7.756;2024-01-11T08:13:54;-1.10;99.90
53272;DHT22;39160;48.580;7.756;2024-01-11T08:18:45;-1.10;99.90
53272;DHT22;39160;48.580;7.756;2024-01-11T08:23:40;-1.10;99.90
53272;DHT22;39160;48.580;7.756;2024-01-11T08:28:35;-1.10;99.90
53272;DHT22;39160;48.580;7.756;2024-01-11T08:33:26;-1.10;99.90
53272;DHT22;39160;48.580;7.756;2024-01-11T08:38:16;-1.00;99.90
53272;DHT22;39160;48.580;7.756;2024-01-11T08:43:07;-0.90;99.90
53272;DHT22;39160;48.580;7.756;2024-01-11T08:47:58;-1.00;99.90
53272;DHT22;39160;48.580;7.756;2024-01-11T08:52:48;-0.90;99.90
53272;DHT22;39160;48.580;7.756;2024-01-11T08:57:39;-1.00;99.90
53272;DHT22;39160;48.580;7.756;2024-01-11T09:02:29;-1.00;99.90
53272;DHT22;39160;48.580;7.756;2024-01-11T09:07:20;-0.90;99.90
53272;DHT22;39160;48.580;7.756;2024-01-11T09:12:11;-0.90;99.90
53272;DHT22;39160;48.580;7.756;2024-01-11T09:17:02;-0.90;99.90
53272;DHT22;39160;48.580;7.756;2024-01-11T09:21:52;-0.90;99.90
53272;DHT22;39160;48.580;7.756;2024-01-11T09:26:44;-0.80;99.90
53272;DHT22;39160;48.580;7.756;2024-01-11T09:31:34;-0.80;99.90
53272;DHT22;39160;48.580;7.756;2024-01-11T09:36:25;-0.90;99.90
53272;DHT22;39160;48.580;7.756;2024-01-11T09:41:16;-0.80;99.90
53272;DHT22;39160;48.580;7.756;2024-01-11T09:46:09;-0.80;99.90
53272;DHT22;39160;48.580;7.756;2024-01-11T09:51:04;-0.70;99.90
53272;DHT22;39160;48.580;7.756;2024-01-11T09:55:55;-0.70;99.90
53272;DHT22;39160;48.580;7.756;2024-01-11T10:00:47;-0.80;99.90
53272;DHT22;39160;48.580;7.756;2024-01-11T10:05:40;-0.70;99.90
53272;DHT22;39160;48.580;7.756;2024-01-11T10:10:32;-0.70;99.90
53272;DHT22;39160;48.580;7.756;2024-01-11T10:15:24;-0.70;99.90
53272;DHT22;39160;48.580;7.756;2024-01-11T10:20:15;-0.70;99.90
53272;DHT22;39160;48.580;7.756;2024-01-11T10:25:12;-0.60;99.90
53272;DHT22;39160;48.580;7.756;2024-01-11T10:30:03;-0.60;99.90
53272;DHT22;39160;48.580;7.756;2024-01-11T10:34:54;-0.50;99.90
53272;DHT22;39160;48.580;7.756;2024-01-11T10:39:45;-0.50;99.90
53272;DHT22;39160;48.580;7.756;2024-01-11T10:44:38;-0.30;99.90
53272;DHT22;39160;48.580;7.756;2024-01-11T10:49:39;-0.30;99.90
53272;DHT22;39160;48.580;7.756;2024-01-11T10:54:31;-0.30;99.90
53272;DHT22;39160;48.580;7.756;2024-01-11T10:59:22;-0.30;99.90
53272;DHT22;39160;48.580;7.756;2024-01-11T11:04:17;-0.30;99.90
53272;DHT22;39160;48.580;7.756;2024-01-11T11:09:11;-0.20;99.90
53272;DHT22;39160;48.580;7.756;2024-01-11T11:14:03;-0.20;99.90
53272;DHT22;39160;48.580;7.756;2024-01-11T11:18:56;-0.20;99.90
53272;DHT22;39160;48.580;7.756;2024-01-11T11:23:47;-0.10;99.90
53272;DHT22;39160;48.580;7.756;2024-01-11T11:28:37;-0.10;99.90
53272;DHT22;39160;48.580;7.756;2024-01-11T11:33:29;0.00;99.90
53272;DHT22;39160;48.580;7.756;2024-01-11T11:38:26;0.00;99.90
53272;DHT22;39160;48.580;7.756;2024-01-11T11:43:17;0.10;99.90
53272;DHT22;39160;48.580;7.756;2024-01-11T11:53:20;0.20;99.90
53272;DHT22;39160;48.580;7.756;2024-01-11T11:58:13;0.10;99.90
53272;DHT22;39160;48.580;7.756;2024-01-11T12:03:05;0.20;99.90
53272;DHT22;39160;48.580;7.756;2024-01-11T12:07:56;0.30;99.90
53272;DHT22;39160;48.580;7.756;2024-01-11T12:12:47;0.30;99.90
53272;DHT22;39160;48.580;7.756;2024-01-11T12:17:38;0.30;99.90
53272;DHT22;39160;48.580;7.756;2024-01-11T12:22:32;0.30;99.90
53272;DHT22;39160;48.580;7.756;2024-01-11T12:27:23;0.40;99.90
53272;DHT22;39160;48.580;7.756;2024-01-11T12:32:14;0.50;99.90
53272;DHT22;39160;48.580;7.756;2024-01-11T12:37:06;0.50;99.90
53272;DHT22;39160;48.580;7.756;2024-01-11T12:41:57;0.50;99.90
53272;DHT22;39160;48.580;7.756;2024-01-11T12:46:48;0.60;99.90
53272;DHT22;39160;48.580;7.756;2024-01-11T12:51:42;0.50;99.90
53272;DHT22;39160;48.580;7.756;2024-01-11T12:56:33;0.50;99.90
53272;DHT22;39160;48.580;7.756;2024-01-11T13:01:23;0.70;99.90
53272;DHT22;39160;48.580;7.756;2024-01-11T13:06:15;0.70;99.90
53272;DHT22;39160;48.580;7.756;2024-01-11T13:11:07;0.70;99.90
53272;DHT22;39160;48.580;7.756;2024-01-11T13:15:59;0.70;99.90
53272;DHT22;39160;48.580;7.756;2024-01-11T13:20:50;0.80;99.90
53272;DHT22;39160;48.580;7.756;2024-01-11T13:25:41;0.80;99.90
53272;DHT22;39160;48.580;7.756;2024-01-11T13:30:32;0.80;99.90
53272;DHT22;39160;48.580;7.756;2024-01-11T13:35:23;0.80;99.90
53272;DHT22;39160;48.580;7.756;2024-01-11T13:40:13;0.80;99.90
53272;DHT22;39160;48.580;7.756;2024-01-11T13:45:05;0.90;99.90
53272;DHT22;39160;48.580;7.756;2024-01-11T13:49:59;0.90;99.90
53272;DHT22;39160;48.580;7.756;2024-01-11T13:54:49;0.90;99.90
53272;DHT22;39160;48.580;7.756;2024-01-11T13:59:40;1.00;99.90
53272;DHT22;39160;48.580;7.756;2024-01-11T14:04:30;1.00;99.90
53272;DHT22;39160;48.580;7.756;2024-01-11T14:09:21;1.10;99.90
53272;DHT22;39160;48.580;7.756;2024-01-11T14:14:12;1.00;99.90
53272;DHT22;39160;48.580;7.756;2024-01-11T14:19:03;1.00;99.90
53272;DHT22;39160;48.580;7.756;2024-01-11T14:23:54;1.00;99.90
53272;DHT22;39160;48.580;7.756;2024-01-11T14:28:45;1.00;99.90
53272;DHT22;39160;48.580;7.756;2024-01-11T14:33:35;1.10;99.90
53272;DHT22;39160;48.580;7.756;2024-01-11T14:38:27;1.10;99.90
53272;DHT22;39160;48.580;7.756;2024-01-11T14:43:19;1.10;99.90
53272;DHT22;39160;48.580;7.756;2024-01-11T14:48:09;1.20;99.90
53272;DHT22;39160;48.580;7.756;2024-01-11T14:53:02;1.20;99.90
53272;DHT22;39160;48.580;7.756;2024-01-11T14:57:54;1.20;99.90
53272;DHT22;39160;48.580;7.756;2024-01-11T15:02:45;1.20;99.90
53272;DHT22;39160;48.580;7.756;2024-01-11T15:07:37;1.20;99.90
53272;DHT22;39160;48.580;7.756;2024-01-11T15:12:27;1.20;99.90
53272;DHT22;39160;48.580;7.756;2024-01-11T15:17:18;1.20;99.90
53272;DHT22;39160;48.580;7.756;2024-01-11T15:22:09;1.20;99.90
53272;DHT22;39160;48.580;7.756;2024-01-11T15:27:02;1.20;99.90
53272;DHT22;39160;48.580;7.756;2024-01-11T15:31:54;1.20;99.90
53272;DHT22;39160;48.580;7.756;2024-01-11T15:36:44;1.20;99.90
53272;DHT22;39160;48.580;7.756;2024-01-11T15:41:35;1.10;99.90
53272;DHT22;39160;48.580;7.756;2024-01-11T15:46:25;1.10;99.90
53272;DHT22;39160;48.580;7.756;2024-01-11T15:51:16;1.10;99.90
53272;DHT22;39160;48.580;7.756;2024-01-11T15:56:07;1.10;99.90
53272;DHT22;39160;48.580;7.756;2024-01-11T16:00:57;1.10;99.90
53272;DHT22;39160;48.580;7.756;2024-01-11T16:05:48;1.10;99.90
53272;DHT22;39160;48.580;7.756;2024-01-11T16:10:39;1.00;99.90
53272;DHT22;39160;48.580;7.756;2024-01-11T16:15:29;1.00;99.90
53272;DHT22;39160;48.580;7.756;2024-01-11T16:20:20;1.00;99.90
53272;DHT22;39160;48.580;7.756;2024-01-11T16:25:11;1.00;99.90
53272;DHT22;39160;48.580;7.756;2024-01-11T16:30:02;1.00;99.90
53272;DHT22;39160;48.580;7.756;2024-01-11T16:34:52;1.00;99.90
53272;DHT22;39160;48.580;7.756;2024-01-11T16:39:43;1.00;99.90
53272;DHT22;39160;48.580;7.756;2024-01-11T16:44:34;1.00;99.90
53272;DHT22;39160;48.580;7.756;2024-01-11T16:49:24;0.90;99.90
53272;DHT22;39160;48.580;7.756;2024-01-11T16:54:15;0.90;99.90
53272;DHT22;39160;48.580;7.756;2024-01-11T16:59:06;1.00;99.90
53272;DHT22;39160;48.580;7.756;2024-01-11T17:03:56;1.00;99.90
53272;DHT22;39160;48.580;7.756;2024-01-11T17:08:48;1.00;99.90
53272;DHT22;39160;48.580;7.756;2024-01-11T17:13:38;1.00;99.90
53272;DHT22;39160;48.580;7.756;2024-01-11T17:18:29;1.00;99.90
53272;DHT22;39160;48.580;7.756;2024-01-11T17:23:20;1.00;99.90
53272;DHT22;39160;48.580;7.756;2024-01-11T17:28:10;1.00;99.90
53272;DHT22;39160;48.580;7.756;2024-01-11T17:33:01;1.00;99.90
53272;DHT22;39160;48.580;7.756;2024-01-11T17:37:52;1.00;99.90
53272;DHT22;39160;48.580;7.756;2024-01-11T17:42:42;1.00;99.90
53272;DHT22;39160;48.580;7.756;2024-01-11T17:47:33;1.00;99.90
53272;DHT22;39160;48.580;7.756;2024-01-11T17:52:24;1.00;99.90
53272;DHT22;39160;48.580;7.756;2024-01-11T17:57:15;1.00;99.90
53272;DHT22;39160;48.580;7.756;2024-01-11T18:02:05;0.90;99.90
53272;DHT22;39160;48.580;7.756;2024-01-11T18:06:57;1.00;99.90
53272;DHT22;39160;48.580;7.756;2024-01-11T18:11:47;1.00;99.90
53272;DHT22;39160;48.580;7.756;2024-01-11T18:16:39;1.00;99.90
53272;DHT22;39160;48.580;7.756;2024-01-11T18:21:29;1.10;99.90
53272;DHT22;39160;48.580;7.756;2024-01-11T18:26:20;0.90;99.90
53272;DHT22;39160;48.580;7.756;2024-01-11T18:31:15;0.90;99.90
53272;DHT22;39160;48.580;7.756;2024-01-11T18:36:06;0.90;99.90
53272;DHT22;39160;48.580;7.756;2024-01-11T18:40:57;0.90;99.90
53272;DHT22;39160;48.580;7.756;2024-01-11T18:45:48;0.90;99.90
53272;DHT22;39160;48.580;7.756;2024-01-11T18:50:39;0.80;99.90
53272;DHT22;39160;48.580;7.756;2024-01-11T18:55:30;0.90;99.90
53272;DHT22;39160;48.580;7.756;2024-01-11T19:00:21;0.90;99.90
53272;DHT22;39160;48.580;7.756;2024-01-11T19:05:12;0.90;99.90
53272;DHT22;39160;48.580;7.756;2024-01-11T19:10:04;0.80;99.90
53272;DHT22;39160;48.580;7.756;2024-01-11T19:14:57;0.80;99.90
53272;DHT22;39160;48.580;7.756;2024-01-11T19:19:48;0.80;99.90
53272;DHT22;39160;48.580;7.756;2024-01-11T19:24:38;0.80;99.90
53272;DHT22;39160;48.580;7.756;2024-01-11T19:29:29;0.80;99.90
53272;DHT22;39160;48.580;7.756;2024-01-11T19:34:21;0.80;99.90
53272;DHT22;39160;48.580;7.756;2024-01-11T19:39:12;0.80;99.90
53272;DHT22;39160;48.580;7.756;2024-01-11T19:44:03;0.80;99.90
53272;DHT22;39160;48.580;7.756;2024-01-11T19:48:54;0.80;99.90
53272;DHT22;39160;48.580;7.756;2024-01-11T19:53:45;0.80;99.90
53272;DHT22;39160;48.580;7.756;2024-01-11T19:58:35;0.80;99.90
53272;DHT22;39160;48.580;7.756;2024-01-11T20:03:26;0.80;99.90
53272;DHT22;39160;48.580;7.756;2024-01-11T20:08:17;0.70;99.90
53272;DHT22;39160;48.580;7.756;2024-01-11T20:13:08;0.80;99.90
53272;DHT22;39160;48.580;7.756;2024-01-11T20:17:58;0.70;99.90
53272;DHT22;39160;48.580;7.756;2024-01-11T20:22:49;0.70;99.90
53272;DHT22;39160;48.580;7.756;2024-01-11T20:27:39;0.70;99.90
53272;DHT22;39160;48.580;7.756;2024-01-11T20:32:30;0.70;99.90
53272;DHT22;39160;48.580;7.756;2024-01-11T20:37:21;0.70;99.90
53272;DHT22;39160;48.580;7.756;2024-01-11T20:42:12;0.70;99.90
53272;DHT22;39160;48.580;7.756;2024-01-11T20:47:04;0.60;99.90
53272;DHT22;39160;48.580;7.756;2024-01-11T20:51:55;0.60;99.90
53272;DHT22;39160;48.580;7.756;2024-01-11T20:56:47;0.60;99.90
53272;DHT22;39160;48.580;7.756;2024-01-11T21:01:38;0.70;99.90
53272;DHT22;39160;48.580;7.756;2024-01-11T21:06:29;0.60;99.90
53272;DHT22;39160;48.580;7.756;2024-01-11T21:11:19;0.60;99.90
53272;DHT22;39160;48.580;7.756;2024-01-11T21:16:11;0.60;99.90
53272;DHT22;39160;48.580;7.756;2024-01-11T21:21:02;0.60;99.90
53272;DHT22;39160;48.580;7.756;2024-01-11T21:25:53;0.60;99.90
53272;DHT22;39160;48.580;7.756;2024-01-11T21:30:43;0.50;99.90
53272;DHT22;39160;48.580;7.756;2024-01-11T21:35:34;0.50;99.90
53272;DHT22;39160;48.580;7.756;2024-01-11T21:40:25;0.50;99.90
53272;DHT22;39160;48.580;7.756;2024-01-11T21:45:15;0.50;99.90
53272;DHT22;39160;48.580;7.756;2024-01-11T21:50:06;0.50;99.90
53272;DHT22;39160;48.580;7.756;2024-01-11T21:54:59;0.50;99.90
53272;DHT22;39160;48.580;7.756;2024-01-11T21:59:50;0.50;99.90
53272;DHT22;39160;48.580;7.756;2024-01-11T22:04:41;0.50;99.90
53272;DHT22;39160;48.580;7.756;2024-01-11T22:09:31;0.50;99.90
53272;DHT22;39160;48.580;7.756;2024-01-11T22:14:22;0.50;99.90
53272;DHT22;39160;48.580;7.756;2024-01-11T22:19:12;0.60;99.90
53272;DHT22;39160;48.580;7.756;2024-01-11T22:24:03;0.50;99.90
53272;DHT22;39160;48.580;7.756;2024-01-11T22:28:54;0.50;99.90
53272;DHT22;39160;48.580;7.756;2024-01-11T22:33:45;0.50;99.90
53272;DHT22;39160;48.580;7.756;2024-01-11T22:38:37;0.40;99.90
53272;DHT22;39160;48.580;7.756;2024-01-11T22:43:28;0.40;99.90
53272;DHT22;39160;48.580;7.756;2024-01-11T22:48:19;0.50;99.90
53272;DHT22;39160;48.580;7.756;2024-01-11T22:53:09;0.40;99.90
53272;DHT22;39160;48.580;7.756;2024-01-11T22:58:00;0.30;99.90
53272;DHT22;39160;48.580;7.756;2024-01-11T23:02:51;0.30;99.90
53272;DHT22;39160;48.580;7.756;2024-01-11T23:07:43;0.40;99.90
53272;DHT22;39160;48.580;7.756;2024-01-11T23:12:34;0.40;99.90
53272;DHT22;39160;48.580;7.756;2024-01-11T23:17:24;0.30;99.90
53272;DHT22;39160;48.580;7.756;2024-01-11T23:22:15;0.30;99.90
53272;DHT22;39160;48.580;7.756;2024-01-11T23:27:05;0.30;99.90
53272;DHT22;39160;48.580;7.756;2024-01-11T23:31:58;0.30;99.90
53272;DHT22;39160;48.580;7.756;2024-01-11T23:36:49;0.30;99.90
53272;DHT22;39160;48.580;7.756;2024-01-11T23:41:39;0.20;99.90
53272;DHT22;39160;48.580;7.756;2024-01-11T23:46:31;0.30;99.90
53272;DHT22;39160;48.580;7.756;2024-01-11T23:51:22;0.30;99.90
53272;DHT22;39160;48.580;7.756;2024-01-11T23:56:13;0.20;99.90
